Tue, 15 Jun 2021 23:31:35 UTC

Information for RPM apache-commons-validator-1.4.0-4.fc19.noarch.rpm

ID3765195
Nameapache-commons-validator
Version1.4.0
Release4.fc19
Epoch
Archnoarch
SummaryApache Commons Validator
DescriptionA common issue when receiving data either electronically or from user input is verifying the integrity of the data. This work is repetitive and becomes even more complicated when different sets of validation rules need to be applied to the same set of data based on locale for example. Error messages may also vary by locale. This package attempts to address some of these issues and speed development and maintenance of validation rules.
Build Time2013-02-19 14:01:13 GMT
Size164,736
72e09d50a1bba2f406b71efb39a22f60
LicenseASL 2.0
Buildrootf19-build-1603680-271448
Provides
apache-commons-validator = 1.4.0-4.fc19
mvn(commons-validator:commons-validator) = 1.4.0
osgi(org.apache.commons.validator) = 1.4.0
Obsoletes No Obsoletes
Conflicts No Conflicts
Requires
apache-commons-beanutils
apache-commons-digester
apache-commons-logging
java >= 1:1.6.0
jpackage-utils
rpmlib(CompressedFileNames) <= 3.0.4-1
rpmlib(FileDigests) <= 4.6.0-1
rpmlib(PayloadFilesHavePrefix) <= 4.0-1
rpmlib(PayloadIsXz) <= 5.2-1
Recommends No Recommends
Suggests No Suggests
Supplements No Supplements
Enhances No Enhances
Files
1 through 7 of 7
Name ascending sort Size
/usr/share/doc/apache-commons-validator-1.4.04,096
/usr/share/doc/apache-commons-validator-1.4.0/LICENSE.txt11,358
/usr/share/doc/apache-commons-validator-1.4.0/NOTICE.txt178
/usr/share/doc/apache-commons-validator-1.4.0/RELEASE-NOTES.txt6,153
/usr/share/java/apache-commons-validator.jar170,082
/usr/share/maven-fragments/apache-commons-validator650
/usr/share/maven-poms/JPP-apache-commons-validator.pom10,118
Component of
Page:
1 through 50 of 4633 >>>
Buildroot descending sort Created State
f19-build-2512095-427010 2014-10-19 14:26:17 expired
f19-build-2447317-423223 2014-10-03 12:49:06 expired
f19-build-2443495-422944 2014-10-02 11:59:44 expired
f19-build-2331407-414394 2014-08-27 13:58:47 expired
f19-build-2327912-414264 2014-08-27 01:50:56 expired
f19-build-2325409-414135 2014-08-26 17:56:31 expired
f19-build-2319616-412782 2014-08-21 18:41:33 expired
f19-build-2319280-412758 2014-08-21 16:07:27 expired
f19-build-2319228-412738 2014-08-21 15:27:58 expired
f19-build-2319215-412738 2014-08-21 14:55:56 expired
f19-build-2318285-412452 2014-08-20 19:07:57 expired
f19-build-2318284-412452 2014-08-20 19:07:57 expired
f19-build-2316230-411886 2014-08-19 10:39:44 expired
f19-build-2316210-411886 2014-08-19 10:21:42 expired
f19-build-2316139-411886 2014-08-19 09:04:39 expired
f19-build-2316130-411886 2014-08-19 08:55:30 expired
f19-build-2316111-411886 2014-08-19 08:41:30 expired
f19-build-2316103-411886 2014-08-19 08:25:03 expired
f19-build-2316096-411886 2014-08-19 08:17:11 expired
f19-build-2316076-411886 2014-08-19 07:56:07 expired
f19-build-2316053-411886 2014-08-19 07:36:18 expired
f19-build-2316019-411886 2014-08-19 06:48:54 expired
f19-build-2303634-411772 2014-08-18 13:51:05 expired
f19-build-2303285-411751 2014-08-18 13:22:16 expired
f19-build-2201913-403754 2014-07-22 06:00:29 expired
f19-build-2201890-403754 2014-07-22 05:36:13 expired
f19-build-2201885-403754 2014-07-22 05:26:17 expired
f19-build-2201876-403754 2014-07-22 04:42:22 expired
f19-build-2201840-403714 2014-07-22 03:18:24 expired
f19-build-2201835-403714 2014-07-22 03:11:59 expired
f19-build-2201831-403714 2014-07-22 03:04:36 expired
f19-build-2201775-403683 2014-07-22 02:13:43 expired
f19-build-2201756-403683 2014-07-22 01:58:42 expired
f19-build-2201702-403683 2014-07-22 00:59:01 expired
f19-build-2201700-403683 2014-07-22 00:30:14 expired
f19-build-2201689-403674 2014-07-22 00:14:39 expired
f19-build-2201682-403674 2014-07-22 00:06:51 expired
f19-build-2201639-403653 2014-07-21 23:31:47 expired
f19-build-2201633-403653 2014-07-21 23:20:34 expired
f19-build-2201520-403602 2014-07-21 22:29:14 expired
f19-build-2198087-402727 2014-07-18 13:18:18 expired
f19-build-2198082-402727 2014-07-18 13:12:37 expired
f19-build-2194789-402092 2014-07-16 13:19:09 expired
f19-build-2186308-400647 2014-07-11 09:10:52 expired
f19-build-2186231-400647 2014-07-11 08:14:14 expired
f19-build-2173536-397471 2014-06-27 21:59:48 expired
f19-build-2173534-397471 2014-06-27 21:59:44 expired
f19-build-2173531-397471 2014-06-27 21:59:25 expired
f19-build-2170735-396938 2014-06-25 18:09:13 expired
f19-build-2096278-389757 2014-05-26 09:41:39 expired